Time;durP1;ratioP1;P1;durP2;ratioP2;P2;SDS_P1;SDS_P2;PMS_P1;PMS_P2;Temp;Humidity;BMP_temperature;BMP_pressure;BME280_temperature;BME280_humidity;BME280_pressure;Samples;Min_cycle;Max_cycle;Signal;HPM_P1;HPM_P2
2024/04/14 00:01:53;;;;;;;2.83;2.00;;;24.80;99.90;;;;;;5361539;21;20037;-52
2024/04/14 00:04:19;;;;;;;3.20;1.90;;;24.80;99.90;;;;;;5347402;26;20062;-52
2024/04/14 00:06:45;;;;;;;4.20;2.38;;;24.80;99.90;;;;;;5347175;26;20391;-53
2024/04/14 00:09:11;;;;;;;2.83;1.63;;;24.70;99.90;;;;;;5347160;26;20011;-53
2024/04/14 00:11:36;;;;;;;3.17;2.58;;;24.70;99.90;;;;;;5346980;26;19993;-52
2024/04/14 00:14:02;;;;;;;4.22;2.15;;;24.70;99.90;;;;;;5347127;26;20004;-52
2024/04/14 00:16:28;;;;;;;3.28;1.80;;;24.70;99.90;;;;;;5346970;26;20135;-53
2024/04/14 00:18:54;;;;;;;4.35;2.53;;;24.70;99.90;;;;;;5347267;26;19993;-53
2024/04/14 00:21:22;;;;;;;3.60;1.77;;;24.70;99.90;;;;;;5347132;26;19997;-52
2024/04/14 00:23:48;;;;;;;3.60;2.28;;;24.70;99.90;;;;;;5346670;26;19997;-53
2024/04/14 00:26:14;;;;;;;2.75;2.13;;;24.70;99.90;;;;;;5346963;26;19997;-52
2024/04/14 00:28:40;;;;;;;3.13;1.95;;;24.70;99.90;;;;;;5347178;26;20012;-52
2024/04/14 00:31:06;;;;;;;4.10;2.50;;;24.70;99.90;;;;;;5346668;26;20009;-53
2024/04/14 00:33:34;;;;;;;3.15;2.28;;;24.70;99.90;;;;;;5346679;26;20016;-53
2024/04/14 00:36:03;;;;;;;3.60;2.42;;;24.70;99.90;;;;;;5346531;26;20011;-53
2024/04/14 00:38:29;;;;;;;3.60;2.38;;;24.70;99.90;;;;;;5346659;26;20441;-53
2024/04/14 00:40:55;;;;;;;3.35;2.28;;;24.70;99.90;;;;;;5347049;26;20008;-53
2024/04/14 00:43:21;;;;;;;4.43;1.98;;;24.70;99.90;;;;;;5347058;26;19996;-53
2024/04/14 00:45:47;;;;;;;2.92;2.10;;;24.70;99.90;;;;;;5346029;26;20001;-52
2024/04/14 00:48:13;;;;;;;4.10;2.35;;;24.70;99.90;;;;;;5346658;26;20074;-52
2024/04/14 00:50:42;;;;;;;4.28;2.50;;;24.70;99.90;;;;;;5346802;26;20457;-53
2024/04/14 00:53:08;;;;;;;3.97;2.10;;;24.70;99.90;;;;;;5346659;26;20001;-52
2024/04/14 00:55:35;;;;;;;3.63;2.20;;;24.60;99.90;;;;;;5346307;26;19997;-52
2024/04/14 00:58:02;;;;;;;2.67;2.08;;;24.60;99.90;;;;;;5344645;26;20448;-53
2024/04/14 01:00:29;;;;;;;3.47;2.00;;;24.60;99.90;;;;;;5347019;26;20445;-52
2024/04/14 01:02:55;;;;;;;4.27;2.43;;;24.60;99.90;;;;;;5346652;26;19997;-52
2024/04/14 01:05:24;;;;;;;3.92;2.40;;;24.60;99.90;;;;;;5346376;26;20025;-52
2024/04/14 01:07:52;;;;;;;4.38;2.08;;;24.60;99.90;;;;;;5346326;26;20008;-52
2024/04/14 01:10:19;;;;;;;4.60;2.72;;;24.60;99.90;;;;;;5346485;26;20397;-53
2024/04/14 01:12:45;;;;;;;2.63;2.00;;;24.60;99.90;;;;;;5346294;26;20001;-52
2024/04/14 01:15:11;;;;;;;7.15;2.75;;;24.60;99.90;;;;;;5346389;26;20452;-52
2024/04/14 01:17:37;;;;;;;5.97;2.60;;;24.60;99.90;;;;;;5345975;26;20008;-52
2024/04/14 01:20:04;;;;;;;3.95;2.28;;;24.60;99.90;;;;;;5346023;26;20429;-52
2024/04/14 01:22:29;;;;;;;3.97;2.57;;;24.60;99.90;;;;;;5346169;26;20453;-52
2024/04/14 01:25:09;;;;;;;5.45;2.35;;;24.60;99.90;;;;;;5346196;26;20080;-52
2024/04/14 01:27:36;;;;;;;4.18;2.20;;;24.60;99.90;;;;;;5346006;26;19997;-52
2024/04/14 01:30:05;;;;;;;2.72;1.98;;;24.50;99.90;;;;;;5346331;26;20022;-52
2024/04/14 01:32:35;;;;;;;3.75;2.63;;;24.50;99.90;;;;;;5345975;26;20028;-52
2024/04/14 01:35:01;;;;;;;3.08;2.42;;;24.60;99.90;;;;;;5346221;26;20456;-52
2024/04/14 01:37:27;;;;;;;3.33;2.20;;;24.50;99.90;;;;;;5345749;26;20001;-52
2024/04/14 01:39:53;;;;;;;3.53;2.20;;;24.50;99.90;;;;;;5345832;26;20015;-52
2024/04/14 01:42:18;;;;;;;4.43;2.25;;;24.50;99.90;;;;;;5346039;26;20452;-52
2024/04/14 01:44:44;;;;;;;3.08;2.35;;;24.50;99.90;;;;;;5345994;26;20460;-52
2024/04/14 01:47:10;;;;;;;3.90;2.20;;;24.50;99.90;;;;;;5346057;26;20008;-52
2024/04/14 01:49:36;;;;;;;3.17;1.92;;;24.50;99.90;;;;;;5345665;26;20071;-52
2024/04/14 01:52:02;;;;;;;4.05;2.55;;;24.50;99.90;;;;;;5345745;26;20016;-52
2024/04/14 01:54:28;;;;;;;3.15;2.53;;;24.50;99.90;;;;;;5345634;26;20004;-53
2024/04/14 01:56:54;;;;;;;3.05;2.15;;;24.50;99.90;;;;;;5346291;26;20064;-52
2024/04/14 01:59:20;;;;;;;3.35;2.33;;;24.50;99.90;;;;;;5348974;26;20005;-52
2024/04/14 02:01:45;;;;;;;4.47;2.80;;;24.50;99.90;;;;;;5421574;21;20003;-52
2024/04/14 02:04:11;;;;;;;3.90;2.85;;;24.50;99.90;;;;;;5455478;26;19995;-52
2024/04/14 02:06:37;;;;;;;3.15;2.45;;;24.50;99.90;;;;;;5455172;26;20094;-53
2024/04/14 02:09:03;;;;;;;4.00;2.28;;;24.40;99.90;;;;;;5455105;26;19999;-52
2024/04/14 02:11:29;;;;;;;4.18;2.78;;;24.40;99.90;;;;;;5455075;26;20430;-52
2024/04/14 02:13:55;;;;;;;5.15;2.67;;;24.50;99.90;;;;;;5455196;26;20005;-52
2024/04/14 02:16:21;;;;;;;3.78;2.25;;;24.40;99.90;;;;;;5454846;26;20067;-52
2024/04/14 02:18:47;;;;;;;3.78;2.75;;;24.40;99.90;;;;;;5455060;26;19995;-53
2024/04/14 02:21:13;;;;;;;4.55;2.80;;;24.40;99.90;;;;;;5455205;26;20199;-52
2024/04/14 02:23:38;;;;;;;3.88;2.72;;;24.40;99.90;;;;;;5454882;26;20443;-51
2024/04/14 02:26:04;;;;;;;3.97;3.13;;;24.40;99.90;;;;;;5455094;26;20437;-51
2024/04/14 02:28:30;;;;;;;3.10;2.67;;;24.40;99.90;;;;;;5454833;26;19995;-52
2024/04/14 02:30:57;;;;;;;4.22;2.78;;;24.40;99.90;;;;;;5454711;26;19995;-53
2024/04/14 02:33:22;;;;;;;5.20;2.70;;;24.40;99.90;;;;;;5454771;26;20388;-53
2024/04/14 02:35:59;;;;;;;3.88;2.40;;;24.40;99.90;;;;;;5454567;26;19990;-53
2024/04/14 02:38:25;;;;;;;4.68;3.08;;;24.40;99.90;;;;;;5454656;26;20071;-52
2024/04/14 02:40:54;;;;;;;4.20;2.83;;;24.30;99.90;;;;;;5454504;26;19995;-53
2024/04/14 02:43:20;;;;;;;4.18;3.08;;;24.30;99.90;;;;;;5454756;26;19998;-53
2024/04/14 02:45:46;;;;;;;5.00;3.40;;;24.30;99.90;;;;;;5455489;26;20009;-53
2024/04/14 02:48:12;;;;;;;4.47;3.20;;;24.30;99.90;;;;;;5454511;26;20014;-52
2024/04/14 02:50:38;;;;;;;4.20;2.80;;;24.30;99.90;;;;;;5454599;26;19995;-53
2024/04/14 02:53:04;;;;;;;5.00;2.70;;;24.30;99.90;;;;;;5454371;26;19999;-53
2024/04/14 02:55:30;;;;;;;5.13;3.33;;;24.30;99.90;;;;;;5454262;26;19999;-53
2024/04/14 02:58:01;;;;;;;3.78;2.53;;;24.30;99.90;;;;;;5454259;26;19995;-54
2024/04/14 03:00:27;;;;;;;4.22;3.20;;;24.30;99.90;;;;;;5453021;26;20344;-52
2024/04/14 03:02:53;;;;;;;3.47;3.15;;;24.20;99.90;;;;;;5454313;26;20392;-52
2024/04/14 03:05:19;;;;;;;5.13;3.17;;;24.20;99.90;;;;;;5454669;26;20010;-53
2024/04/14 03:07:45;;;;;;;3.85;3.30;;;24.20;99.90;;;;;;5454446;26;20006;-52
2024/04/14 03:10:11;;;;;;;4.90;3.03;;;24.20;99.90;;;;;;5454371;26;19999;-52
2024/04/14 03:12:37;;;;;;;3.80;3.05;;;24.20;99.90;;;;;;5454133;26;19995;-53
2024/04/14 03:15:04;;;;;;;4.95;3.25;;;24.20;99.90;;;;;;5452314;26;20315;-52
2024/04/14 03:17:29;;;;;;;4.85;3.13;;;24.20;99.90;;;;;;5454129;26;20010;-53
2024/04/14 03:19:55;;;;;;;4.43;3.17;;;24.20;99.90;;;;;;5454348;26;19995;-53
2024/04/14 03:22:21;;;;;;;4.18;3.10;;;24.20;99.90;;;;;;5454094;26;20044;-53
2024/04/14 03:24:48;;;;;;;4.90;3.20;;;24.20;99.90;;;;;;5454308;26;20006;-53
2024/04/14 03:27:13;;;;;;;4.45;2.80;;;24.20;99.90;;;;;;5454011;26;19998;-53
2024/04/14 03:29:39;;;;;;;4.07;2.97;;;24.10;99.90;;;;;;5453916;26;20602;-54
2024/04/14 03:32:06;;;;;;;4.00;2.88;;;24.20;99.90;;;;;;5454133;26;19995;-53
2024/04/14 03:34:32;;;;;;;4.57;3.38;;;24.20;99.90;;;;;;5454015;26;19999;-53
2024/04/14 03:36:58;;;;;;;4.13;3.08;;;24.10;99.90;;;;;;5454007;26;20340;-52
2024/04/14 03:39:24;;;;;;;4.25;3.40;;;24.10;99.90;;;;;;5453967;26;19998;-53
2024/04/14 03:41:49;;;;;;;3.72;3.38;;;24.10;99.90;;;;;;5453934;26;19994;-53
2024/04/14 03:44:15;;;;;;;5.03;3.28;;;24.10;99.90;;;;;;5453845;26;19999;-52
2024/04/14 03:46:41;;;;;;;5.28;3.08;;;24.10;99.90;;;;;;5453664;26;20339;-52
2024/04/14 03:49:07;;;;;;;4.10;3.40;;;24.10;99.90;;;;;;5453911;26;20071;-52
2024/04/14 03:51:34;;;;;;;6.05;3.80;;;24.10;99.90;;;;;;5453672;26;19995;-52
2024/04/14 03:54:00;;;;;;;4.07;3.17;;;24.10;99.90;;;;;;5450525;26;19991;-53
2024/04/14 03:56:25;;;;;;;3.85;3.03;;;24.10;99.90;;;;;;5449833;26;20212;-52
2024/04/14 03:58:51;;;;;;;4.15;3.15;;;24.10;99.90;;;;;;5448502;26;20443;-52
2024/04/14 04:01:17;;;;;;;7.25;3.65;;;24.10;99.90;;;;;;5450057;26;20487;-52
2024/04/14 04:03:43;;;;;;;4.45;3.35;;;24.00;99.90;;;;;;5450079;26;20348;-52
2024/04/14 04:06:09;;;;;;;4.45;3.45;;;24.00;99.90;;;;;;5449822;26;20448;-51
2024/04/14 04:08:35;;;;;;;5.18;3.78;;;24.00;99.90;;;;;;5450059;26;19998;-52
2024/04/14 04:11:02;;;;;;;5.00;3.58;;;24.00;99.90;;;;;;5453286;26;20005;-52
2024/04/14 04:13:29;;;;;;;5.72;3.70;;;24.00;99.90;;;;;;5453311;26;20002;-52
2024/04/14 04:15:59;;;;;;;6.05;3.45;;;24.00;99.90;;;;;;5452996;26;20002;-51
2024/04/14 04:18:26;;;;;;;4.50;3.42;;;24.00;99.90;;;;;;5453286;26;19995;-51
2024/04/14 04:20:59;;;;;;;4.05;3.42;;;24.00;99.90;;;;;;5452519;26;20040;-52
2024/04/14 04:23:28;;;;;;;4.75;3.80;;;24.00;99.90;;;;;;5451450;26;20072;-52
2024/04/14 04:25:56;;;;;;;5.55;3.55;;;24.00;99.90;;;;;;5453371;26;20035;-53
2024/04/14 04:28:22;;;;;;;4.47;3.17;;;24.00;99.90;;;;;;5453381;26;19994;-52
2024/04/14 04:30:49;;;;;;;4.43;3.60;;;23.90;99.90;;;;;;5453380;26;20005;-53
2024/04/14 04:33:15;;;;;;;6.70;3.43;;;24.00;99.90;;;;;;5453507;26;20026;-52
2024/04/14 04:35:53;;;;;;;5.00;3.85;;;23.90;99.90;;;;;;5451232;26;20261;-53
2024/04/14 04:38:20;;;;;;;6.22;3.72;;;23.90;99.90;;;;;;5453238;26;20022;-52
2024/04/14 04:40:46;;;;;;;4.43;3.33;;;23.90;99.90;;;;;;5452979;26;20327;-53
2024/04/14 04:43:12;;;;;;;5.00;3.30;;;23.90;99.90;;;;;;5452942;26;20067;-52
2024/04/14 04:45:37;;;;;;;4.65;3.65;;;23.90;99.90;;;;;;5451237;26;20007;-53
2024/04/14 04:48:04;;;;;;;4.35;3.28;;;23.90;99.90;;;;;;5453260;26;20009;-54
2024/04/14 04:50:29;;;;;;;3.97;3.30;;;23.90;99.90;;;;;;5452747;26;19999;-53
2024/04/14 04:52:56;;;;;;;5.80;3.75;;;23.90;99.90;;;;;;5452907;26;19999;-53
2024/04/14 04:55:22;;;;;;;5.38;3.45;;;23.90;99.90;;;;;;5452992;26;19994;-53
2024/04/14 04:57:48;;;;;;;4.70;3.78;;;23.90;99.90;;;;;;5452955;26;20395;-53
2024/04/14 05:00:14;;;;;;;4.38;3.03;;;23.80;99.90;;;;;;5452826;26;20075;-52
2024/04/14 05:02:39;;;;;;;4.72;3.65;;;23.80;99.90;;;;;;5452629;26;20006;-53
2024/04/14 05:05:06;;;;;;;6.93;3.67;;;23.90;99.90;;;;;;5452817;26;19998;-53
2024/04/14 05:07:35;;;;;;;4.43;3.13;;;23.90;99.90;;;;;;5452665;26;20354;-53
2024/04/14 05:10:01;;;;;;;5.32;2.97;;;23.80;99.90;;;;;;5452785;26;20031;-53
2024/04/14 05:12:26;;;;;;;4.70;2.90;;;23.80;99.90;;;;;;5452633;26;20504;-52
2024/04/14 05:14:52;;;;;;;4.03;3.30;;;23.80;99.90;;;;;;5452796;26;20006;-53
2024/04/14 05:17:18;;;;;;;3.83;2.85;;;23.80;99.90;;;;;;5452461;26;19999;-53
2024/04/14 05:19:44;;;;;;;4.85;3.10;;;23.80;99.90;;;;;;5452549;26;20067;-53
2024/04/14 05:22:09;;;;;;;4.10;2.83;;;23.80;99.90;;;;;;5452505;26;20314;-53
2024/04/14 05:24:35;;;;;;;4.40;3.13;;;23.80;99.90;;;;;;5452546;26;20010;-54
2024/04/14 05:27:01;;;;;;;5.13;2.78;;;23.80;99.90;;;;;;5452255;26;19998;-53
2024/04/14 05:29:27;;;;;;;6.97;3.33;;;23.80;99.90;;;;;;5452186;26;20006;-53
2024/04/14 05:31:53;;;;;;;5.00;3.35;;;23.80;99.90;;;;;;5452577;26;19998;-54
2024/04/14 05:34:19;;;;;;;4.57;3.00;;;23.80;99.90;;;;;;5420616;26;20441;-53
2024/04/14 05:36:45;;;;;;;4.25;2.95;;;23.80;99.90;;;;;;5450511;26;20284;-54
2024/04/14 05:39:11;;;;;;;4.38;2.83;;;23.80;99.90;;;;;;5450537;26;20006;-54
2024/04/14 05:41:36;;;;;;;6.55;2.55;;;23.80;99.90;;;;;;5452065;26;20423;-53
2024/04/14 05:44:02;;;;;;;4.70;2.53;;;23.80;99.90;;;;;;5452008;26;20002;-53
2024/04/14 05:46:28;;;;;;;3.50;2.58;;;23.80;99.90;;;;;;5451808;26;19999;-53
2024/04/14 05:48:54;;;;;;;3.88;3.05;;;23.80;99.90;;;;;;5450273;26;19999;-53
2024/04/14 05:51:20;;;;;;;6.65;2.97;;;23.80;99.90;;;;;;5451843;26;20013;-54
2024/04/14 05:53:48;;;;;;;5.50;2.65;;;23.80;99.90;;;;;;5451666;26;20027;-53
2024/04/14 05:56:14;;;;;;;4.47;2.88;;;23.70;99.90;;;;;;5451580;26;20366;-53
2024/04/14 05:58:40;;;;;;;4.03;2.80;;;23.80;99.90;;;;;;5451856;26;19995;-55
2024/04/14 06:01:07;;;;;;;3.97;2.60;;;23.80;99.90;;;;;;5451486;26;20067;-53
2024/04/14 06:03:33;;;;;;;2.43;2.07;;;23.80;99.90;;;;;;5451891;26;20455;-54
2024/04/14 06:06:00;;;;;;;4.18;2.72;;;23.70;99.90;;;;;;5451452;26;20484;-53
2024/04/14 06:08:26;;;;;;;3.42;2.60;;;23.70;99.90;;;;;;5450359;26;19999;-53
2024/04/14 06:10:52;;;;;;;3.45;2.60;;;23.70;99.90;;;;;;5419993;26;20048;-54
2024/04/14 06:13:17;;;;;;;3.17;2.30;;;23.70;99.90;;;;;;5451694;26;19995;-52
2024/04/14 06:15:46;;;;;;;3.65;2.28;;;23.70;99.90;;;;;;5449724;26;20124;-54
2024/04/14 06:18:11;;;;;;;4.18;2.53;;;23.70;99.90;;;;;;5449799;26;20007;-54
2024/04/14 06:20:40;;;;;;;3.75;2.60;;;23.70;99.90;;;;;;5440127;26;19995;-53
2024/04/14 06:23:06;;;;;;;5.70;2.58;;;23.70;99.90;;;;;;5448542;26;20068;-55
2024/04/14 06:25:32;;;;;;;4.40;2.40;;;23.70;99.90;;;;;;5450876;26;20011;-53
2024/04/14 06:27:58;;;;;;;3.85;2.65;;;23.70;99.90;;;;;;5449543;26;20003;-53
2024/04/14 06:30:24;;;;;;;3.33;2.60;;;23.70;99.90;;;;;;5450265;26;20003;-55
2024/04/14 06:32:50;;;;;;;3.40;2.50;;;23.70;99.90;;;;;;5450976;26;20009;-53
2024/04/14 06:35:17;;;;;;;3.85;2.13;;;23.70;99.90;;;;;;5450991;26;19995;-55
2024/04/14 06:37:43;;;;;;;3.90;2.53;;;23.70;99.90;;;;;;5449003;26;20010;-53
2024/04/14 06:40:09;;;;;;;4.30;2.55;;;23.70;99.90;;;;;;5450893;26;20527;-54
2024/04/14 06:42:36;;;;;;;3.53;2.45;;;23.70;99.90;;;;;;5451417;26;20022;-52
2024/04/14 06:45:02;;;;;;;4.47;2.67;;;23.70;99.90;;;;;;5454200;26;20357;-52
2024/04/14 06:47:27;;;;;;;3.42;2.50;;;23.70;99.90;;;;;;5454601;26;20007;-53
2024/04/14 06:49:53;;;;;;;3.55;2.05;;;23.70;99.90;;;;;;5452401;26;20440;-52
2024/04/14 06:52:19;;;;;;;5.30;2.53;;;23.70;99.90;;;;;;5449113;26;20455;-54
2024/04/14 06:54:45;;;;;;;3.53;1.95;;;23.70;99.90;;;;;;5450638;26;19995;-54
2024/04/14 06:57:10;;;;;;;5.78;2.78;;;23.70;99.90;;;;;;5450891;26;20744;-53
2024/04/14 06:59:36;;;;;;;4.72;2.78;;;23.70;99.90;;;;;;5450826;26;20006;-53
2024/04/14 07:02:02;;;;;;;4.80;2.10;;;23.70;99.90;;;;;;5450745;26;20002;-54
2024/04/14 07:04:28;;;;;;;3.15;2.03;;;23.70;99.90;;;;;;5451541;26;20009;-53
2024/04/14 07:06:54;;;;;;;4.35;3.05;;;23.70;99.90;;;;;;5454336;26;19999;-53
2024/04/14 07:09:19;;;;;;;5.43;2.63;;;23.70;99.90;;;;;;5452757;26;20362;-53
2024/04/14 07:11:45;;;;;;;3.97;2.78;;;23.70;99.90;;;;;;5454440;26;19999;-53
2024/04/14 07:14:11;;;;;;;3.75;2.42;;;23.80;99.90;;;;;;5454152;26;19995;-53
2024/04/14 07:16:37;;;;;;;2.83;2.15;;;23.80;99.90;;;;;;5454327;26;19998;-54
2024/04/14 07:19:03;;;;;;;3.83;2.42;;;23.80;99.90;;;;;;5454177;26;19999;-54
2024/04/14 07:21:28;;;;;;;3.65;2.20;;;23.70;99.90;;;;;;5452756;26;19994;-53
2024/04/14 07:23:54;;;;;;;4.20;2.33;;;23.80;99.90;;;;;;5454196;26;20027;-53
2024/04/14 07:26:20;;;;;;;2.78;2.28;;;23.70;99.90;;;;;;5454251;26;19995;-53
2024/04/14 07:28:46;;;;;;;3.45;2.40;;;23.80;99.90;;;;;;5454144;26;20021;-54
2024/04/14 07:31:11;;;;;;;4.13;2.35;;;23.70;99.90;;;;;;5454124;26;20438;-53
2024/04/14 07:33:37;;;;;;;5.90;2.45;;;23.80;99.90;;;;;;5454011;26;20009;-53
2024/04/14 07:36:03;;;;;;;3.95;3.05;;;23.80;99.90;;;;;;5453891;26;19995;-53
2024/04/14 07:38:29;;;;;;;3.60;1.90;;;23.80;99.90;;;;;;5454242;26;20071;-54
2024/04/14 07:40:55;;;;;;;2.80;2.30;;;23.80;99.90;;;;;;5453947;26;20427;-54
2024/04/14 07:43:21;;;;;;;3.65;2.33;;;23.80;99.90;;;;;;5453818;26;20335;-54
2024/04/14 07:45:46;;;;;;;4.22;2.33;;;23.80;99.90;;;;;;5453977;26;19999;-53
2024/04/14 07:48:12;;;;;;;3.40;2.40;;;23.80;99.90;;;;;;5453995;26;20009;-53
2024/04/14 07:50:43;;;;;;;3.67;2.22;;;23.80;99.90;;;;;;5453892;26;19998;-54
2024/04/14 07:53:09;;;;;;;2.65;2.15;;;23.80;99.90;;;;;;5451815;26;20066;-53
2024/04/14 07:55:35;;;;;;;4.22;2.50;;;23.80;99.90;;;;;;5450469;26;20005;-53
2024/04/14 07:58:01;;;;;;;4.90;2.55;;;23.80;99.90;;;;;;5453843;26;19995;-54
2024/04/14 08:00:27;;;;;;;4.57;2.80;;;23.80;99.90;;;;;;5453539;26;20009;-53
2024/04/14 08:02:53;;;;;;;3.92;2.75;;;23.80;99.90;;;;;;5453703;26;19998;-53
2024/04/14 08:05:18;;;;;;;3.10;2.22;;;23.80;99.90;;;;;;5453652;26;19999;-53
2024/04/14 08:07:44;;;;;;;3.58;2.38;;;23.80;99.90;;;;;;5453519;26;20006;-53
2024/04/14 08:10:10;;;;;;;3.40;2.50;;;23.80;99.90;;;;;;5451588;26;19998;-54
2024/04/14 08:12:37;;;;;;;3.55;2.25;;;23.80;99.90;;;;;;5453512;26;20009;-53
2024/04/14 08:15:02;;;;;;;4.43;2.97;;;23.80;99.90;;;;;;5454123;26;19995;-53
2024/04/14 08:17:32;;;;;;;4.60;2.88;;;23.80;99.90;;;;;;5451880;26;20427;-53
2024/04/14 08:19:58;;;;;;;3.53;2.83;;;23.80;99.90;;;;;;5453907;26;20006;-53
2024/04/14 08:22:23;;;;;;;5.45;2.65;;;23.80;99.90;;;;;;5453514;26;20067;-53
2024/04/14 08:24:49;;;;;;;5.38;2.92;;;23.80;99.90;;;;;;5453292;26;20006;-52
2024/04/14 08:27:15;;;;;;;2.88;2.20;;;23.80;99.90;;;;;;5453178;26;20071;-53
2024/04/14 08:29:41;;;;;;;4.15;2.47;;;23.80;99.90;;;;;;5453066;26;19999;-53
2024/04/14 08:32:07;;;;;;;5.00;3.03;;;23.80;99.90;;;;;;5453383;26;20014;-53
2024/04/14 08:34:33;;;;;;;4.18;2.60;;;23.80;99.90;;;;;;5453511;26;19998;-53
2024/04/14 08:36:58;;;;;;;4.20;2.75;;;23.80;99.90;;;;;;5453130;26;20506;-53
2024/04/14 08:39:24;;;;;;;4.95;2.55;;;23.80;99.90;;;;;;5453192;26;19995;-53
2024/04/14 08:41:50;;;;;;;5.00;3.10;;;23.90;99.90;;;;;;5451421;26;20071;-53
2024/04/14 08:44:16;;;;;;;4.38;2.35;;;23.80;99.90;;;;;;5453111;26;19999;-54
2024/04/14 08:46:43;;;;;;;4.63;2.78;;;23.80;99.90;;;;;;5453195;26;20435;-52
2024/04/14 08:49:12;;;;;;;5.22;3.03;;;23.80;99.90;;;;;;5452989;26;20009;-53
2024/04/14 08:51:37;;;;;;;2.83;2.40;;;23.90;99.90;;;;;;5452965;26;19999;-53
2024/04/14 08:54:03;;;;;;;3.72;2.60;;;23.80;99.90;;;;;;5453362;26;20013;-53
2024/04/14 08:56:31;;;;;;;6.05;2.88;;;23.90;99.90;;;;;;5452822;26;19998;-53
2024/04/14 08:59:04;;;;;;;4.10;2.70;;;23.90;99.90;;;;;;5452905;26;20006;-52
2024/04/14 09:01:30;;;;;;;4.95;2.78;;;23.90;99.90;;;;;;5452713;26;20011;-54
2024/04/14 09:03:56;;;;;;;5.10;2.90;;;23.90;99.90;;;;;;5452968;26;20026;-54
2024/04/14 09:06:23;;;;;;;4.32;2.92;;;23.90;99.90;;;;;;5452316;26;20071;-53
2024/04/14 09:08:49;;;;;;;5.97;3.30;;;23.90;99.90;;;;;;5452507;26;20388;-52
2024/04/14 09:11:15;;;;;;;4.88;3.00;;;23.90;99.90;;;;;;5452653;26;20328;-52
2024/04/14 09:13:41;;;;;;;5.78;2.95;;;23.90;99.90;;;;;;5452600;26;19995;-54
2024/04/14 09:16:08;;;;;;;5.75;2.72;;;23.90;99.90;;;;;;5452718;26;20071;-52
2024/04/14 09:18:36;;;;;;;3.47;2.45;;;23.90;99.90;;;;;;5452746;26;20416;-55
2024/04/14 09:21:02;;;;;;;4.53;2.83;;;23.90;99.90;;;;;;5452475;26;20070;-54
2024/04/14 09:23:28;;;;;;;6.22;2.90;;;23.90;99.90;;;;;;5452775;26;19999;-52
2024/04/14 09:25:54;;;;;;;4.38;2.80;;;23.90;99.90;;;;;;5452708;26;20028;-53
2024/04/14 09:28:20;;;;;;;5.78;2.70;;;23.90;99.90;;;;;;5452861;26;20003;-53
2024/04/14 09:30:46;;;;;;;4.22;2.40;;;23.90;99.90;;;;;;5452412;26;19998;-52
2024/04/14 09:33:12;;;;;;;4.25;2.65;;;23.90;99.90;;;;;;5452414;26;19999;-53
2024/04/14 09:35:38;;;;;;;3.90;2.83;;;23.90;99.90;;;;;;5450660;26;20356;-53
2024/04/14 09:38:08;;;;;;;5.00;3.22;;;23.90;99.90;;;;;;5452236;26;20021;-53
2024/04/14 09:40:36;;;;;;;6.57;3.10;;;24.00;99.90;;;;;;5452194;26;20014;-53
2024/04/14 09:43:03;;;;;;;4.90;3.05;;;24.00;99.90;;;;;;5452237;26;19998;-54
2024/04/14 09:45:31;;;;;;;3.83;2.58;;;24.00;99.90;;;;;;5452070;26;20006;-53
2024/04/14 09:47:58;;;;;;;3.70;2.80;;;24.00;99.90;;;;;;5452192;26;20027;-52
2024/04/14 09:50:26;;;;;;;3.30;2.50;;;24.00;99.90;;;;;;5420649;26;20009;-54
2024/04/14 09:52:57;;;;;;;5.65;3.00;;;24.00;99.90;;;;;;5450228;26;19998;-53
2024/04/14 09:55:23;;;;;;;4.80;2.80;;;24.00;99.90;;;;;;5451852;26;20431;-53
2024/04/14 09:57:49;;;;;;;6.40;2.40;;;24.00;99.90;;;;;;5448979;26;20010;-52
2024/04/14 10:00:18;;;;;;;4.00;2.63;;;24.00;99.90;;;;;;5418971;26;20011;-54
2024/04/14 10:02:53;;;;;;;6.80;2.80;;;24.00;99.90;;;;;;5437778;26;20035;-53
2024/04/14 10:05:21;;;;;;;4.15;2.50;;;24.00;99.90;;;;;;5443014;26;20609;-52
2024/04/14 10:07:48;;;;;;;;;;;24.00;99.90;;;;;;5431837;26;20039;-52
2024/04/14 10:10:14;;;;;;;6.95;2.72;;;24.00;99.90;;;;;;5450712;26;19925;-53
2024/04/14 10:12:40;;;;;;;6.50;2.92;;;24.00;99.90;;;;;;5451559;26;20331;-52
2024/04/14 10:15:07;;;;;;;3.47;2.60;;;24.10;99.90;;;;;;5451175;26;19999;-53
2024/04/14 10:17:33;;;;;;;4.90;3.28;;;24.10;99.90;;;;;;5451153;26;19995;-53
2024/04/14 10:20:11;;;;;;;5.22;2.90;;;24.10;99.90;;;;;;5416841;26;20020;-54
2024/04/14 10:22:40;;;;;;;4.90;2.83;;;24.10;99.90;;;;;;5419488;26;20457;-52
2024/04/14 10:25:17;;;;;;;5.25;2.75;;;24.10;99.90;;;;;;5450523;26;19999;-54
2024/04/14 10:27:43;;;;;;;5.38;3.08;;;24.10;99.90;;;;;;5446697;26;20511;-53
2024/04/14 10:30:10;;;;;;;5.07;2.38;;;24.10;99.90;;;;;;5450922;26;20030;-53
2024/04/14 10:32:36;;;;;;;9.65;2.80;;;24.20;99.90;;;;;;5450658;26;20003;-54
2024/04/14 10:35:15;;;;;;;6.82;2.58;;;24.20;99.90;;;;;;5452134;26;20014;-54
2024/04/14 10:37:52;;;;;;;7.10;3.15;;;24.20;99.90;;;;;;5450089;26;20455;-52
2024/04/14 10:40:18;;;;;;;9.27;2.20;;;24.20;99.90;;;;;;5454161;26;20010;-55
2024/04/14 10:42:46;;;;;;;4.07;2.22;;;24.20;99.90;;;;;;5449245;26;20022;-53
2024/04/14 10:45:12;;;;;;;2.88;1.80;;;24.20;99.90;;;;;;5454084;26;20002;-52
2024/04/14 10:47:40;;;;;;;5.88;2.15;;;24.20;99.90;;;;;;5454446;26;20028;-54
2024/04/14 10:50:06;;;;;;;3.58;2.28;;;24.30;99.90;;;;;;5450433;26;20079;-51
2024/04/14 10:52:32;;;;;;;5.38;1.70;;;24.30;99.90;;;;;;5453880;26;20002;-50
2024/04/14 10:54:58;;;;;;;11.48;2.33;;;24.30;99.90;;;;;;5453464;26;20002;-51
2024/04/14 10:57:23;;;;;;;4.97;2.92;;;24.30;99.90;;;;;;5452753;26;19999;-54
2024/04/14 10:59:49;;;;;;;4.50;2.03;;;24.30;99.90;;;;;;5453871;26;20489;-54
2024/04/14 11:02:15;;;;;;;4.57;2.22;;;24.30;99.90;;;;;;5453253;26;20003;-54
2024/04/14 11:04:42;;;;;;;6.43;1.90;;;24.30;99.90;;;;;;5453995;26;20003;-52
2024/04/14 11:07:09;;;;;;;2.42;1.77;;;24.40;99.90;;;;;;5453877;26;19999;-53
2024/04/14 11:09:36;;;;;;;3.65;2.13;;;24.30;99.90;;;;;;5453754;26;20379;-56
2024/04/14 11:12:03;;;;;;;3.92;1.95;;;24.40;99.90;;;;;;5453237;26;19999;-55
2024/04/14 11:14:29;;;;;;;3.30;1.70;;;24.40;99.90;;;;;;5453398;26;20002;-54
2024/04/14 11:16:55;;;;;;;3.45;1.73;;;24.40;99.90;;;;;;5451664;26;20346;-55
2024/04/14 11:19:21;;;;;;;10.57;2.20;;;24.50;99.90;;;;;;5453634;26;19999;-52
2024/04/14 11:21:48;;;;;;;6.60;2.33;;;24.50;99.90;;;;;;5453643;26;20010;-51
2024/04/14 11:24:14;;;;;;;6.45;2.47;;;24.50;99.90;;;;;;5454395;26;20338;-51
2024/04/14 11:26:41;;;;;;;8.63;2.90;;;24.50;99.90;;;;;;5452168;26;20002;-54
2024/04/14 11:29:07;;;;;;;5.33;2.13;;;24.50;99.90;;;;;;5446369;26;20007;-52
2024/04/14 11:31:37;;;;;;;7.03;3.10;;;24.50;99.90;;;;;;5417789;26;20007;-52
2024/04/14 11:34:03;;;;;;;10.05;2.95;;;24.50;99.90;;;;;;5418154;26;19999;-56
2024/04/14 11:36:35;;;;;;;8.60;2.78;;;24.60;99.90;;;;;;5417923;26;20065;-54
2024/04/14 11:39:04;;;;;;;7.20;2.25;;;24.60;99.90;;;;;;5419482;26;19995;-51
2024/04/14 11:41:31;;;;;;;8.13;2.13;;;24.60;99.90;;;;;;5420342;26;20000;-52
2024/04/14 11:43:57;;;;;;;9.20;2.90;;;24.60;99.90;;;;;;5431111;26;20031;-53
2024/04/14 11:46:23;;;;;;;11.80;2.60;;;24.60;99.90;;;;;;5453889;26;19999;-50
2024/04/14 11:48:49;;;;;;;8.80;2.75;;;24.60;99.90;;;;;;5452503;26;20075;-55
2024/04/14 11:51:15;;;;;;;5.38;2.15;;;24.60;99.90;;;;;;5451738;26;20003;-54
2024/04/14 11:53:40;;;;;;;6.07;2.13;;;24.70;99.90;;;;;;5453932;26;20021;-55
2024/04/14 11:56:07;;;;;;;5.85;2.90;;;24.70;99.90;;;;;;5451332;26;20860;-55
2024/04/14 11:58:33;;;;;;;13.23;3.03;;;24.70;99.90;;;;;;5453017;26;20003;-54
2024/04/14 12:00:58;;;;;;;5.63;2.30;;;24.70;99.90;;;;;;5453168;26;19994;-56
2024/04/14 12:03:24;;;;;;;5.85;2.15;;;24.70;99.90;;;;;;5449665;26;20015;-54
2024/04/14 12:05:50;;;;;;;6.78;2.05;;;24.70;99.90;;;;;;5452890;26;20010;-54
2024/04/14 12:08:16;;;;;;;5.30;1.80;;;24.80;99.90;;;;;;5453486;26;19999;-52
2024/04/14 12:10:43;;;;;;;8.90;2.10;;;24.80;99.90;;;;;;5453281;26;20007;-55
2024/04/14 12:13:12;;;;;;;8.82;1.80;;;24.80;99.90;;;;;;5453557;26;19999;-53
2024/04/14 12:15:37;;;;;;;8.70;2.55;;;24.80;99.90;;;;;;5453452;26;19994;-54
2024/04/14 12:18:03;;;;;;;5.47;1.95;;;24.80;99.90;;;;;;5453503;26;20536;-54
2024/04/14 12:20:29;;;;;;;6.18;2.05;;;24.80;99.90;;;;;;5452585;26;20339;-53
2024/04/14 12:22:55;;;;;;;6.85;1.95;;;24.90;99.90;;;;;;5452957;26;20003;-54
2024/04/14 12:25:21;;;;;;;3.45;1.75;;;24.90;99.90;;;;;;5453139;26;20066;-53
2024/04/14 12:27:47;;;;;;;9.52;2.72;;;24.90;99.90;;;;;;5452928;26;20003;-53
2024/04/14 12:30:13;;;;;;;21.52;2.85;;;24.90;99.90;;;;;;5452886;26;20021;-52
2024/04/14 12:32:40;;;;;;;8.80;2.10;;;24.90;99.90;;;;;;5453148;26;20033;-52
2024/04/14 12:35:06;;;;;;;8.82;2.25;;;24.90;99.90;;;;;;5451938;26;20007;-52
2024/04/14 12:37:32;;;;;;;8.95;2.00;;;25.00;99.90;;;;;;5446175;26;20421;-51
2024/04/14 12:39:57;;;;;;;9.95;2.90;;;25.00;99.90;;;;;;5450209;26;20010;-53
2024/04/14 12:42:23;;;;;;;25.17;2.55;;;25.00;99.90;;;;;;5450377;26;20010;-54
2024/04/14 12:44:49;;;;;;;4.65;2.15;;;25.00;99.90;;;;;;5450430;26;20003;-55